sensor_id;sensor_type;location;lat;lon;timestamp;pressure;altitude;pressure_sealevel;temperature
61595;BMP280;47397;48.194;11.632;2023-04-12T00:00:48;95577.84;;;4.99
61595;BMP280;47397;48.194;11.632;2023-04-12T00:01:48;95565.22;;;5.03
61595;BMP280;47397;48.194;11.632;2023-04-12T00:02:49;95572.69;;;5.14
61595;BMP280;47397;48.194;11.632;2023-04-12T00:03:49;95566.91;;;5.01
61595;BMP280;47397;48.194;11.632;2023-04-12T00:04:50;95572.91;;;4.87
61595;BMP280;47397;48.194;11.632;2023-04-12T00:05:50;95562.66;;;5.10
61595;BMP280;47397;48.194;11.632;2023-04-12T00:06:50;95564.28;;;5.14
61595;BMP280;47397;48.194;11.632;2023-04-12T00:07:51;95562.63;;;5.13
61595;BMP280;47397;48.194;11.632;2023-04-12T00:08:51;95559.25;;;5.15
61595;BMP280;47397;48.194;11.632;2023-04-12T00:09:52;95560.97;;;5.12
61595;BMP280;47397;48.194;11.632;2023-04-12T00:10:52;95562.72;;;5.03
61595;BMP280;47397;48.194;11.632;2023-04-12T00:11:53;95561.91;;;4.98
61595;BMP280;47397;48.194;11.632;2023-04-12T00:12:53;95559.34;;;5.06
61595;BMP280;47397;48.194;11.632;2023-04-12T00:13:55;95556.84;;;5.01
61595;BMP280;47397;48.194;11.632;2023-04-12T00:14:55;95555.94;;;5.09
61595;BMP280;47397;48.194;11.632;2023-04-12T00:15:55;95550.09;;;5.07
61595;BMP280;47397;48.194;11.632;2023-04-12T00:16:56;95550.03;;;5.11
61595;BMP280;47397;48.194;11.632;2023-04-12T00:17:56;95546.66;;;5.14
61595;BMP280;47397;48.194;11.632;2023-04-12T00:18:57;95542.53;;;5.05
61595;BMP280;47397;48.194;11.632;2023-04-12T00:19:57;95544.19;;;5.09
61595;BMP280;47397;48.194;11.632;2023-04-12T00:20:58;95538.28;;;5.12
61595;BMP280;47397;48.194;11.632;2023-04-12T00:21:58;95538.28;;;5.12
61595;BMP280;47397;48.194;11.632;2023-04-12T00:22:58;95534.06;;;5.14
61595;BMP280;47397;48.194;11.632;2023-04-12T00:23:59;95538.28;;;5.12
61595;BMP280;47397;48.194;11.632;2023-04-12T00:24:59;95540.00;;;5.10
61595;BMP280;47397;48.194;11.632;2023-04-12T00:26:00;95537.53;;;5.02
61595;BMP280;47397;48.194;11.632;2023-04-12T00:27:00;95538.28;;;5.12
61595;BMP280;47397;48.194;11.632;2023-04-12T00:28:01;95533.25;;;5.12
61595;BMP280;47397;48.194;11.632;2023-04-12T00:29:03;95537.53;;;5.03
61595;BMP280;47397;48.194;11.632;2023-04-12T00:30:04;95523.09;;;5.24
61595;BMP280;47397;48.194;11.632;2023-04-12T00:31:05;95528.16;;;5.21
61595;BMP280;47397;48.194;11.632;2023-04-12T00:32:06;95528.94;;;5.27
61595;BMP280;47397;48.194;11.632;2023-04-12T00:33:06;95523.81;;;5.35
61595;BMP280;47397;48.194;11.632;2023-04-12T00:34:06;95524.69;;;5.31
61595;BMP280;47397;48.194;11.632;2023-04-12T00:35:07;95515.44;;;5.31
61595;BMP280;47397;48.194;11.632;2023-04-12T00:36:08;95528.16;;;5.21
61595;BMP280;47397;48.194;11.632;2023-04-12T00:37:08;95522.25;;;5.23
61595;BMP280;47397;48.194;11.632;2023-04-12T00:38:09;95522.22;;;5.26
61595;BMP280;47397;48.194;11.632;2023-04-12T00:39:09;95524.84;;;5.13
61595;BMP280;47397;48.194;11.632;2023-04-12T00:40:11;95519.75;;;5.20
61595;BMP280;47397;48.194;11.632;2023-04-12T00:41:11;95518.09;;;5.16
61595;BMP280;47397;48.194;11.632;2023-04-12T00:42:12;95524.78;;;5.22
61595;BMP280;47397;48.194;11.632;2023-04-12T00:43:12;95520.56;;;5.24
61595;BMP280;47397;48.194;11.632;2023-04-12T00:44:14;95520.59;;;5.18
61595;BMP280;47397;48.194;11.632;2023-04-12T00:45:14;95514.66;;;5.26
61595;BMP280;47397;48.194;11.632;2023-04-12T00:46:15;95514.69;;;5.25
61595;BMP280;47397;48.194;11.632;2023-04-12T00:47:16;95512.13;;;5.28
61595;BMP280;47397;48.194;11.632;2023-04-12T00:48:16;95512.16;;;5.25
61595;BMP280;47397;48.194;11.632;2023-04-12T00:49:17;95506.19;;;5.35
61595;BMP280;47397;48.194;11.632;2023-04-12T00:50:17;95509.47;;;5.40
61595;BMP280;47397;48.194;11.632;2023-04-12T00:51:18;95505.31;;;5.36
61595;BMP280;47397;48.194;11.632;2023-04-12T00:52:18;95503.78;;;5.20
61595;BMP280;47397;48.194;11.632;2023-04-12T00:53:18;95498.66;;;5.32
61595;BMP280;47397;48.194;11.632;2023-04-12T00:54:19;95505.31;;;5.38
61595;BMP280;47397;48.194;11.632;2023-04-12T00:55:19;95507.81;;;5.39
61595;BMP280;47397;48.194;11.632;2023-04-12T00:56:20;95501.19;;;5.29
61595;BMP280;47397;48.194;11.632;2023-04-12T00:57:20;95507.16;;;5.22
61595;BMP280;47397;48.194;11.632;2023-04-12T00:58:22;95507.84;;;5.36
61595;BMP280;47397;48.194;11.632;2023-04-12T00:59:24;95501.94;;;5.37
61595;BMP280;47397;48.194;11.632;2023-04-12T01:00:25;95506.25;;;5.27
61595;BMP280;47397;48.194;11.632;2023-04-12T01:01:26;95500.25;;;5.39
61595;BMP280;47397;48.194;11.632;2023-04-12T01:02:26;95502.78;;;5.39
61595;BMP280;47397;48.194;11.632;2023-04-12T01:03:27;95496.84;;;5.45
61595;BMP280;47397;48.194;11.632;2023-04-12T01:04:27;95494.25;;;5.49
61595;BMP280;47397;48.194;11.632;2023-04-12T01:05:28;95496.81;;;5.46
61595;BMP280;47397;48.194;11.632;2023-04-12T01:06:38;95492.69;;;5.41
61595;BMP280;47397;48.194;11.632;2023-04-12T01:07:41;95494.31;;;5.43
61595;BMP280;47397;48.194;11.632;2023-04-12T01:08:50;95489.44;;;5.29
61595;BMP280;47397;48.194;11.632;2023-04-12T01:09:58;95490.97;;;5.43
61595;BMP280;47397;48.194;11.632;2023-04-12T01:11:06;95492.63;;;5.45
61595;BMP280;47397;48.194;11.632;2023-04-12T01:12:15;95481.81;;;5.36
61595;BMP280;47397;48.194;11.632;2023-04-12T01:13:27;95486.88;;;5.34
61595;BMP280;47397;48.194;11.632;2023-04-12T01:14:36;95491.75;;;5.48
61595;BMP280;47397;48.194;11.632;2023-04-12T01:15:47;95481.69;;;5.46
61595;BMP280;47397;48.194;11.632;2023-04-12T01:16:50;95483.50;;;5.35
61595;BMP280;47397;48.194;11.632;2023-04-12T01:18:08;95486.78;;;5.43
61595;BMP280;47397;48.194;11.632;2023-04-12T01:19:28;95488.41;;;5.47
61595;BMP280;47397;48.194;11.632;2023-04-12T01:20:34;95480.09;;;5.39
61595;BMP280;47397;48.194;11.632;2023-04-12T01:21:44;95483.31;;;5.50
61595;BMP280;47397;48.194;11.632;2023-04-12T01:23:08;95483.63;;;5.23
61595;BMP280;47397;48.194;11.632;2023-04-12T01:24:22;95485.03;;;5.48
61595;BMP280;47397;48.194;11.632;2023-04-12T01:25:36;95476.63;;;5.49
61595;BMP280;47397;48.194;11.632;2023-04-12T01:26:40;95474.84;;;5.59
61595;BMP280;47397;48.194;11.632;2023-04-12T01:27:45;95470.66;;;5.56
61595;BMP280;47397;48.194;11.632;2023-04-12T01:28:46;95474.09;;;5.51
61595;BMP280;47397;48.194;11.632;2023-04-12T01:29:49;95477.50;;;5.47
61595;BMP280;47397;48.194;11.632;2023-04-12T01:30:50;95487.56;;;5.48
61595;BMP280;47397;48.194;11.632;2023-04-12T01:31:52;95482.44;;;5.54
61595;BMP280;47397;48.194;11.632;2023-04-12T01:32:55;95479.09;;;5.52
61595;BMP280;47397;48.194;11.632;2023-04-12T01:33:56;95484.19;;;5.49
61595;BMP280;47397;48.194;11.632;2023-04-12T01:34:58;95480.91;;;5.41
61595;BMP280;47397;48.194;11.632;2023-04-12T01:36:03;95481.69;;;5.46
61595;BMP280;47397;48.194;11.632;2023-04-12T01:37:05;95471.69;;;5.39
61595;BMP280;47397;48.194;11.632;2023-04-12T01:38:06;95474.94;;;5.50
61595;BMP280;47397;48.194;11.632;2023-04-12T01:39:07;95479.03;;;5.60
61595;BMP280;47397;48.194;11.632;2023-04-12T01:40:09;95475.69;;;5.59
61595;BMP280;47397;48.194;11.632;2023-04-12T01:41:10;95469.69;;;5.68
61595;BMP280;47397;48.194;11.632;2023-04-12T01:42:11;95472.97;;;5.75
61595;BMP280;47397;48.194;11.632;2023-04-12T01:43:13;95473.06;;;5.69
61595;BMP280;47397;48.194;11.632;2023-04-12T01:44:13;95462.84;;;5.78
61595;BMP280;47397;48.194;11.632;2023-04-12T01:45:14;95471.25;;;5.78
61595;BMP280;47397;48.194;11.632;2023-04-12T01:46:15;95476.31;;;5.77
61595;BMP280;47397;48.194;11.632;2023-04-12T01:47:17;95473.06;;;5.69
61595;BMP280;47397;48.194;11.632;2023-04-12T01:48:18;95471.28;;;5.77
61595;BMP280;47397;48.194;11.632;2023-04-12T01:49:20;95475.38;;;5.84
61595;BMP280;47397;48.194;11.632;2023-04-12T01:50:23;95467.13;;;5.73
61595;BMP280;47397;48.194;11.632;2023-04-12T01:51:33;95471.28;;;5.75
61595;BMP280;47397;48.194;11.632;2023-04-12T01:52:41;95467.84;;;5.81
61595;BMP280;47397;48.194;11.632;2023-04-12T01:53:47;95468.63;;;5.86
61595;BMP280;47397;48.194;11.632;2023-04-12T01:54:50;95467.88;;;5.79
61595;BMP280;47397;48.194;11.632;2023-04-12T01:55:56;95471.28;;;5.77
61595;BMP280;47397;48.194;11.632;2023-04-12T01:56:59;95465.69;;;5.50
61595;BMP280;47397;48.194;11.632;2023-04-12T01:58:01;95468.91;;;5.64
61595;BMP280;47397;48.194;11.632;2023-04-12T01:59:04;95463.78;;;5.71
61595;BMP280;47397;48.194;11.632;2023-04-12T02:00:07;95461.19;;;5.77
61595;BMP280;47397;48.194;11.632;2023-04-12T02:01:08;95461.28;;;5.69
61595;BMP280;47397;48.194;11.632;2023-04-12T02:02:10;95464.56;;;5.74
61595;BMP280;47397;48.194;11.632;2023-04-12T02:03:12;95461.97;;;5.82
61595;BMP280;47397;48.194;11.632;2023-04-12T02:04:13;95460.28;;;5.81
61595;BMP280;47397;48.194;11.632;2023-04-12T02:05:14;95465.31;;;5.82
61595;BMP280;47397;48.194;11.632;2023-04-12T02:06:17;95465.28;;;5.84
61595;BMP280;47397;48.194;11.632;2023-04-12T02:07:18;95462.84;;;5.78
61595;BMP280;47397;48.194;11.632;2023-04-12T02:08:18;95464.47;;;5.83
61595;BMP280;47397;48.194;11.632;2023-04-12T02:09:19;95458.59;;;5.81
61595;BMP280;47397;48.194;11.632;2023-04-12T02:10:27;95460.34;;;5.78
61595;BMP280;47397;48.194;11.632;2023-04-12T02:11:27;95465.28;;;5.84
61595;BMP280;47397;48.194;11.632;2023-04-12T02:12:28;95466.06;;;5.95
61595;BMP280;47397;48.194;11.632;2023-04-12T02:13:28;95457.69;;;5.87
61595;BMP280;47397;48.194;11.632;2023-04-12T02:14:30;95461.97;;;5.80
61595;BMP280;47397;48.194;11.632;2023-04-12T02:15:30;95465.22;;;5.91
61595;BMP280;47397;48.194;11.632;2023-04-12T02:16:31;95473.63;;;5.92
61595;BMP280;47397;48.194;11.632;2023-04-12T02:17:31;95474.41;;;5.99
61595;BMP280;47397;48.194;11.632;2023-04-12T02:18:32;95464.34;;;5.97
61595;BMP280;47397;48.194;11.632;2023-04-12T02:19:32;95465.19;;;5.93
61595;BMP280;47397;48.194;11.632;2023-04-12T02:20:32;95464.38;;;5.92
61595;BMP280;47397;48.194;11.632;2023-04-12T02:21:38;95460.44;;;5.69
61595;BMP280;47397;48.194;11.632;2023-04-12T02:22:39;95458.53;;;5.86
61595;BMP280;47397;48.194;11.632;2023-04-12T02:23:39;95455.22;;;5.84
61595;BMP280;47397;48.194;11.632;2023-04-12T02:24:39;95462.66;;;5.94
61595;BMP280;47397;48.194;11.632;2023-04-12T02:25:40;95456.69;;;6.03
61595;BMP280;47397;48.194;11.632;2023-04-12T02:26:40;95456.72;;;6.00
61595;BMP280;47397;48.194;11.632;2023-04-12T02:27:41;95460.06;;;6.02
61595;BMP280;47397;48.194;11.632;2023-04-12T02:28:41;95458.38;;;6.03
61595;BMP280;47397;48.194;11.632;2023-04-12T02:29:43;95457.63;;;5.96
61595;BMP280;47397;48.194;11.632;2023-04-12T02:30:43;95461.94;;;5.83
61595;BMP280;47397;48.194;11.632;2023-04-12T02:31:44;95458.53;;;5.86
61595;BMP280;47397;48.194;11.632;2023-04-12T02:32:44;95455.13;;;5.93
61595;BMP280;47397;48.194;11.632;2023-04-12T02:33:45;95463.53;;;5.89
61595;BMP280;47397;48.194;11.632;2023-04-12T02:34:45;95458.44;;;5.98
61595;BMP280;47397;48.194;11.632;2023-04-12T02:35:45;95457.53;;;6.04
61595;BMP280;47397;48.194;11.632;2023-04-12T02:36:46;95455.84;;;6.03
61595;BMP280;47397;48.194;11.632;2023-04-12T02:37:47;95457.59;;;5.99
61595;BMP280;47397;48.194;11.632;2023-04-12T02:38:47;95458.34;;;6.06
61595;BMP280;47397;48.194;11.632;2023-04-12T02:39:47;95458.44;;;5.98
61595;BMP280;47397;48.194;11.632;2023-04-12T02:40:48;95455.94;;;5.93
61595;BMP280;47397;48.194;11.632;2023-04-12T02:41:48;95458.50;;;5.92
61595;BMP280;47397;48.194;11.632;2023-04-12T02:42:49;95451.81;;;5.89
61595;BMP280;47397;48.194;11.632;2023-04-12T02:43:49;95460.16;;;5.93
61595;BMP280;47397;48.194;11.632;2023-04-12T02:44:51;95455.03;;;6.02
61595;BMP280;47397;48.194;11.632;2023-04-12T02:45:51;95461.78;;;5.99
61595;BMP280;47397;48.194;11.632;2023-04-12T02:46:52;95457.63;;;5.94
61595;BMP280;47397;48.194;11.632;2023-04-12T02:47:52;95461.00;;;5.95
61595;BMP280;47397;48.194;11.632;2023-04-12T02:48:52;95457.63;;;5.96
61595;BMP280;47397;48.194;11.632;2023-04-12T02:49:53;95460.06;;;6.02
61595;BMP280;47397;48.194;11.632;2023-04-12T02:50:53;95459.28;;;5.97
61595;BMP280;47397;48.194;11.632;2023-04-12T02:51:54;95453.38;;;6.00
61595;BMP280;47397;48.194;11.632;2023-04-12T02:52:54;95456.78;;;5.97
61595;BMP280;47397;48.194;11.632;2023-04-12T02:53:54;95460.25;;;5.84
61595;BMP280;47397;48.194;11.632;2023-04-12T02:54:55;95454.28;;;5.92
61595;BMP280;47397;48.194;11.632;2023-04-12T02:55:56;95454.25;;;5.97
61595;BMP280;47397;48.194;11.632;2023-04-12T02:56:56;95465.19;;;5.96
61595;BMP280;47397;48.194;11.632;2023-04-12T02:57:57;95459.28;;;5.99
61595;BMP280;47397;48.194;11.632;2023-04-12T02:58:57;95460.13;;;5.98
61595;BMP280;47397;48.194;11.632;2023-04-12T02:59:59;95457.66;;;5.88
61595;BMP280;47397;48.194;11.632;2023-04-12T03:00:59;95456.78;;;5.95
61595;BMP280;47397;48.194;11.632;2023-04-12T03:02:00;95462.72;;;5.90
61595;BMP280;47397;48.194;11.632;2023-04-12T03:03:01;95460.19;;;5.88
61595;BMP280;47397;48.194;11.632;2023-04-12T03:04:01;95452.53;;;5.99
61595;BMP280;47397;48.194;11.632;2023-04-12T03:05:02;95447.50;;;5.98
61595;BMP280;47397;48.194;11.632;2023-04-12T03:06:04;95443.28;;;6.00
61595;BMP280;47397;48.194;11.632;2023-04-12T03:07:04;95440.81;;;5.93
61595;BMP280;47397;48.194;11.632;2023-04-12T03:08:05;95445.06;;;5.91
61595;BMP280;47397;48.194;11.632;2023-04-12T03:09:05;95436.66;;;5.91
61595;BMP280;47397;48.194;11.632;2023-04-12T03:10:07;95437.53;;;5.85
61595;BMP280;47397;48.194;11.632;2023-04-12T03:11:07;95439.97;;;5.93
61595;BMP280;47397;48.194;11.632;2023-04-12T03:12:08;95433.31;;;5.86
61595;BMP280;47397;48.194;11.632;2023-04-12T03:13:08;95429.03;;;5.94
61595;BMP280;47397;48.194;11.632;2023-04-12T03:14:09;95434.78;;;6.07
61595;BMP280;47397;48.194;11.632;2023-04-12T03:15:11;95430.53;;;6.09
61595;BMP280;47397;48.194;11.632;2023-04-12T03:16:23;95429.72;;;6.08
61595;BMP280;47397;48.194;11.632;2023-04-12T03:17:23;95427.22;;;6.07
61595;BMP280;47397;48.194;11.632;2023-04-12T03:18:24;95428.03;;;6.07
61595;BMP280;47397;48.194;11.632;2023-04-12T03:19:24;95433.13;;;6.04
61595;BMP280;47397;48.194;11.632;2023-04-12T03:20:25;95435.59;;;6.07
61595;BMP280;47397;48.194;11.632;2023-04-12T03:21:25;95428.13;;;6.01
61595;BMP280;47397;48.194;11.632;2023-04-12T03:22:25;95429.16;;;5.83
61595;BMP280;47397;48.194;11.632;2023-04-12T03:23:26;95427.38;;;5.96
61595;BMP280;47397;48.194;11.632;2023-04-12T03:24:27;95421.31;;;6.06
61595;BMP280;47397;48.194;11.632;2023-04-12T03:25:27;95425.44;;;6.12
61595;BMP280;47397;48.194;11.632;2023-04-12T03:26:27;95425.53;;;6.06
61595;BMP280;47397;48.194;11.632;2023-04-12T03:27:28;95423.16;;;5.95
61595;BMP280;47397;48.194;11.632;2023-04-12T03:28:28;95429.03;;;5.94
61595;BMP280;47397;48.194;11.632;2023-04-12T03:29:29;95417.97;;;6.06
61595;BMP280;47397;48.194;11.632;2023-04-12T03:30:30;95420.34;;;6.15
61595;BMP280;47397;48.194;11.632;2023-04-12T03:31:31;95415.38;;;6.10
61595;BMP280;47397;48.194;11.632;2023-04-12T03:32:31;95418.75;;;6.09
61595;BMP280;47397;48.194;11.632;2023-04-12T03:33:32;95416.31;;;6.05
61595;BMP280;47397;48.194;11.632;2023-04-12T03:34:32;95412.88;;;6.09
61595;BMP280;47397;48.194;11.632;2023-04-12T03:35:33;95410.47;;;6.01
61595;BMP280;47397;48.194;11.632;2023-04-12T03:36:33;95414.75;;;5.93
61595;BMP280;47397;48.194;11.632;2023-04-12T03:37:34;95412.16;;;6.01
61595;BMP280;47397;48.194;11.632;2023-04-12T03:38:34;95404.56;;;6.02
61595;BMP280;47397;48.194;11.632;2023-04-12T03:39:34;95405.28;;;6.10
61595;BMP280;47397;48.194;11.632;2023-04-12T03:40:35;95408.66;;;6.09
61595;BMP280;47397;48.194;11.632;2023-04-12T03:41:35;95403.75;;;6.02
61595;BMP280;47397;48.194;11.632;2023-04-12T03:42:36;95412.06;;;6.07
61595;BMP280;47397;48.194;11.632;2023-04-12T03:43:36;95418.00;;;6.04
61595;BMP280;47397;48.194;11.632;2023-04-12T03:44:36;95410.47;;;6.01
61595;BMP280;47397;48.194;11.632;2023-04-12T03:45:38;95416.41;;;5.97
61595;BMP280;47397;48.194;11.632;2023-04-12T03:46:39;95406.97;;;6.10
61595;BMP280;47397;48.194;11.632;2023-04-12T03:47:39;95408.81;;;5.99
61595;BMP280;47397;48.194;11.632;2023-04-12T03:48:39;95408.00;;;5.98
61595;BMP280;47397;48.194;11.632;2023-04-12T03:49:40;95402.13;;;5.94
61595;BMP280;47397;48.194;11.632;2023-04-12T03:50:40;95402.97;;;5.93
61595;BMP280;47397;48.194;11.632;2023-04-12T03:51:41;95397.81;;;6.04
61595;BMP280;47397;48.194;11.632;2023-04-12T03:52:41;95399.78;;;5.81
61595;BMP280;47397;48.194;11.632;2023-04-12T03:53:41;95406.38;;;5.92
61595;BMP280;47397;48.194;11.632;2023-04-12T03:54:42;95405.53;;;5.89
61595;BMP280;47397;48.194;11.632;2023-04-12T03:55:42;95397.06;;;5.99
61595;BMP280;47397;48.194;11.632;2023-04-12T03:56:42;95405.44;;;6.01
61595;BMP280;47397;48.194;11.632;2023-04-12T03:57:43;95398.75;;;5.99
61595;BMP280;47397;48.194;11.632;2023-04-12T03:58:43;95405.69;;;5.78
61595;BMP280;47397;48.194;11.632;2023-04-12T03:59:44;95400.63;;;5.80
61595;BMP280;47397;48.194;11.632;2023-04-12T04:00:45;95400.13;;;5.53
61595;BMP280;47397;48.194;11.632;2023-04-12T04:01:46;95404.84;;;5.78
61595;BMP280;47397;48.194;11.632;2023-04-12T04:02:46;95399.03;;;5.74
61595;BMP280;47397;48.194;11.632;2023-04-12T04:03:47;95396.81;;;5.48
61595;BMP280;47397;48.194;11.632;2023-04-12T04:04:47;95403.44;;;5.58
61595;BMP280;47397;48.194;11.632;2023-04-12T04:05:47;95396.59;;;5.67
61595;BMP280;47397;48.194;11.632;2023-04-12T04:06:48;95389.84;;;5.69
61595;BMP280;47397;48.194;11.632;2023-04-12T04:07:49;95388.09;;;5.75
61595;BMP280;47397;48.194;11.632;2023-04-12T04:08:50;95384.56;;;5.87
61595;BMP280;47397;48.194;11.632;2023-04-12T04:09:50;95381.94;;;5.94
61595;BMP280;47397;48.194;11.632;2023-04-12T04:10:50;95380.31;;;5.89
61595;BMP280;47397;48.194;11.632;2023-04-12T04:11:51;95384.50;;;5.93
61595;BMP280;47397;48.194;11.632;2023-04-12T04:12:51;95383.66;;;5.95
61595;BMP280;47397;48.194;11.632;2023-04-12T04:13:52;95382.06;;;5.85
61595;BMP280;47397;48.194;11.632;2023-04-12T04:14:52;95374.41;;;5.93
61595;BMP280;47397;48.194;11.632;2023-04-12T04:16:00;95384.78;;;5.72
61595;BMP280;47397;48.194;11.632;2023-04-12T04:17:01;95377.13;;;5.76
61595;BMP280;47397;48.194;11.632;2023-04-12T04:18:02;95374.59;;;5.78
61595;BMP280;47397;48.194;11.632;2023-04-12T04:19:02;95373.72;;;5.80
61595;BMP280;47397;48.194;11.632;2023-04-12T04:20:03;95369.56;;;5.78
61595;BMP280;47397;48.194;11.632;2023-04-12T04:21:04;95364.50;;;5.79
61595;BMP280;47397;48.194;11.632;2023-04-12T04:22:05;95362.13;;;5.69
61595;BMP280;47397;48.194;11.632;2023-04-12T04:23:05;95367.75;;;5.86
61595;BMP280;47397;48.194;11.632;2023-04-12T04:24:06;95370.38;;;5.80
61595;BMP280;47397;48.194;11.632;2023-04-12T04:25:08;95362.81;;;5.80
61595;BMP280;47397;48.194;11.632;2023-04-12T04:26:08;95362.72;;;5.86
61595;BMP280;47397;48.194;11.632;2023-04-12T04:27:08;95361.13;;;5.79
61595;BMP280;47397;48.194;11.632;2023-04-12T04:28:09;95359.44;;;5.81
61595;BMP280;47397;48.194;11.632;2023-04-12T04:29:09;95366.28;;;5.73
61595;BMP280;47397;48.194;11.632;2023-04-12T04:30:11;95366.13;;;5.83
61595;BMP280;47397;48.194;11.632;2023-04-12T04:31:13;95363.53;;;5.88
61595;BMP280;47397;48.194;11.632;2023-04-12T04:32:13;95362.75;;;5.83
61595;BMP280;47397;48.194;11.632;2023-04-12T04:33:13;95365.25;;;5.86
61595;BMP280;47397;48.194;11.632;2023-04-12T04:34:14;95373.59;;;5.91
61595;BMP280;47397;48.194;11.632;2023-04-12T04:35:14;95373.09;;;5.64
61595;BMP280;47397;48.194;11.632;2023-04-12T04:36:15;95366.44;;;5.57
61595;BMP280;47397;48.194;11.632;2023-04-12T04:37:15;95365.53;;;5.66
61595;BMP280;47397;48.194;11.632;2023-04-12T04:38:16;95367.19;;;5.67
61595;BMP280;47397;48.194;11.632;2023-04-12T04:39:16;95360.25;;;5.81
61595;BMP280;47397;48.194;11.632;2023-04-12T04:40:17;95359.31;;;5.88
61595;BMP280;47397;48.194;11.632;2023-04-12T04:41:17;95353.50;;;5.83
61595;BMP280;47397;48.194;11.632;2023-04-12T04:42:17;95358.50;;;5.86
61595;BMP280;47397;48.194;11.632;2023-04-12T04:43:18;95361.00;;;5.89
61595;BMP280;47397;48.194;11.632;2023-04-12T04:44:19;95359.50;;;5.76
61595;BMP280;47397;48.194;11.632;2023-04-12T04:45:20;95361.94;;;5.81
61595;BMP280;47397;48.194;11.632;2023-04-12T04:46:22;95367.06;;;5.75
61595;BMP280;47397;48.194;11.632;2023-04-12T04:47:23;95360.25;;;5.83
61595;BMP280;47397;48.194;11.632;2023-04-12T04:48:23;95357.59;;;5.92
61595;BMP280;47397;48.194;11.632;2023-04-12T04:49:24;95358.69;;;5.74
61595;BMP280;47397;48.194;11.632;2023-04-12T04:50:24;95359.56;;;5.72
61595;BMP280;47397;48.194;11.632;2023-04-12T04:51:24;95354.34;;;5.84
61595;BMP280;47397;48.194;11.632;2023-04-12T04:52:25;95353.56;;;5.79
61595;BMP280;47397;48.194;11.632;2023-04-12T04:53:25;95354.78;;;5.50
61595;BMP280;47397;48.194;11.632;2023-04-12T04:54:26;95354.59;;;5.65
61595;BMP280;47397;48.194;11.632;2023-04-12T04:55:26;95360.41;;;5.72
61595;BMP280;47397;48.194;11.632;2023-04-12T04:56:27;95350.34;;;5.69
61595;BMP280;47397;48.194;11.632;2023-04-12T04:57:27;95353.94;;;5.51
61595;BMP280;47397;48.194;11.632;2023-04-12T04:58:27;95351.31;;;5.60
61595;BMP280;47397;48.194;11.632;2023-04-12T04:59:28;95352.97;;;5.61
61595;BMP280;47397;48.194;11.632;2023-04-12T05:00:28;95346.94;;;5.72
61595;BMP280;47397;48.194;11.632;2023-04-12T05:01:30;95342.63;;;5.80
61595;BMP280;47397;48.194;11.632;2023-04-12T05:02:30;95340.91;;;5.83
61595;BMP280;47397;48.194;11.632;2023-04-12T05:03:31;95342.94;;;5.58
61595;BMP280;47397;48.194;11.632;2023-04-12T05:04:31;95340.06;;;5.83
61595;BMP280;47397;48.194;11.632;2023-04-12T05:05:32;95339.25;;;5.81
61595;BMP280;47397;48.194;11.632;2023-04-12T05:06:32;95332.59;;;5.77
61595;BMP280;47397;48.194;11.632;2023-04-12T05:07:32;95335.78;;;5.88
61595;BMP280;47397;48.194;11.632;2023-04-12T05:08:33;95334.09;;;5.90
61595;BMP280;47397;48.194;11.632;2023-04-12T05:09:33;95339.06;;;5.94
61595;BMP280;47397;48.194;11.632;2023-04-12T05:10:34;95334.44;;;5.65
61595;BMP280;47397;48.194;11.632;2023-04-12T05:11:34;95334.47;;;5.62
61595;BMP280;47397;48.194;11.632;2023-04-12T05:12:34;95336.81;;;5.75
61595;BMP280;47397;48.194;11.632;2023-04-12T05:13:35;95331.66;;;5.82
61595;BMP280;47397;48.194;11.632;2023-04-12T05:14:35;95326.72;;;5.76
61595;BMP280;47397;48.194;11.632;2023-04-12T05:15:39;95332.56;;;5.78
61595;BMP280;47397;48.194;11.632;2023-04-12T05:16:41;95328.47;;;5.71
61595;BMP280;47397;48.194;11.632;2023-04-12T05:17:41;95325.84;;;5.79
61595;BMP280;47397;48.194;11.632;2023-04-12T05:18:43;95325.78;;;5.83
61595;BMP280;47397;48.194;11.632;2023-04-12T05:19:43;95326.63;;;5.82
61595;BMP280;47397;48.194;11.632;2023-04-12T05:20:43;95322.50;;;5.77
61595;BMP280;47397;48.194;11.632;2023-04-12T05:21:44;95325.03;;;5.77
61595;BMP280;47397;48.194;11.632;2023-04-12T05:22:44;95319.09;;;5.81
61595;BMP280;47397;48.194;11.632;2023-04-12T05:23:46;95318.59;;;5.56
61595;BMP280;47397;48.194;11.632;2023-04-12T05:24:47;95325.25;;;5.61
61595;BMP280;47397;48.194;11.632;2023-04-12T05:25:47;95316.84;;;5.61
61595;BMP280;47397;48.194;11.632;2023-04-12T05:26:48;95313.34;;;5.71
61595;BMP280;47397;48.194;11.632;2023-04-12T05:27:48;95312.38;;;5.80
61595;BMP280;47397;48.194;11.632;2023-04-12T05:28:48;95301.34;;;5.87
61595;BMP280;47397;48.194;11.632;2023-04-12T05:29:49;95304.63;;;5.93
61595;BMP280;47397;48.194;11.632;2023-04-12T05:30:49;95303.22;;;5.74
61595;BMP280;47397;48.194;11.632;2023-04-12T05:31:51;95305.47;;;5.94
61595;BMP280;47397;48.194;11.632;2023-04-12T05:32:51;95312.28;;;5.86
61595;BMP280;47397;48.194;11.632;2023-04-12T05:33:52;95300.41;;;5.97
61595;BMP280;47397;48.194;11.632;2023-04-12T05:34:52;95298.63;;;6.02
61595;BMP280;47397;48.194;11.632;2023-04-12T05:35:52;95302.16;;;5.87
61595;BMP280;47397;48.194;11.632;2023-04-12T05:36:53;95300.66;;;5.76
61595;BMP280;47397;48.194;11.632;2023-04-12T05:37:53;95302.09;;;5.93
61595;BMP280;47397;48.194;11.632;2023-04-12T05:38:54;95297.00;;;6.00
61595;BMP280;47397;48.194;11.632;2023-04-12T05:39:54;95291.28;;;5.85
61595;BMP280;47397;48.194;11.632;2023-04-12T05:40:55;95301.41;;;5.82
61595;BMP280;47397;48.194;11.632;2023-04-12T05:41:55;95293.69;;;5.93
61595;BMP280;47397;48.194;11.632;2023-04-12T05:42:55;95294.44;;;6.01
61595;BMP280;47397;48.194;11.632;2023-04-12T05:43:56;95295.38;;;5.95
61595;BMP280;47397;48.194;11.632;2023-04-12T05:44:56;95298.97;;;5.78
61595;BMP280;47397;48.194;11.632;2023-04-12T05:45:57;95294.91;;;5.68
61595;BMP280;47397;48.194;11.632;2023-04-12T05:46:58;95285.41;;;5.85
61595;BMP280;47397;48.194;11.632;2023-04-12T05:48:00;95287.47;;;5.60
61595;BMP280;47397;48.194;11.632;2023-04-12T05:49:00;95280.78;;;5.56
61595;BMP280;47397;48.194;11.632;2023-04-12T05:50:00;95288.19;;;5.68
61595;BMP280;47397;48.194;11.632;2023-04-12T05:51:01;95279.53;;;5.83
61595;BMP280;47397;48.194;11.632;2023-04-12T05:52:02;95281.84;;;6.01
61595;BMP280;47397;48.194;11.632;2023-04-12T05:53:02;95275.00;;;6.08
61595;BMP280;47397;48.194;11.632;2023-04-12T05:54:03;95275.69;;;6.16